createdAt,value
2018-12-18T00:00:47.249Z,39.30
2018-12-18T00:03:14.821Z,39.67
2018-12-18T00:05:42.323Z,39.71
2018-12-18T00:08:09.898Z,39.27
2018-12-18T00:10:42.857Z,39.61
2018-12-18T00:13:10.293Z,39.55
2018-12-18T00:15:37.970Z,39.00
2018-12-18T00:18:05.543Z,39.57
2018-12-18T00:20:32.941Z,39.14
2018-12-18T00:23:00.352Z,39.27
2018-12-18T00:25:27.754Z,39.41
2018-12-18T00:27:55.173Z,39.59
2018-12-18T00:30:23.502Z,39.10
2018-12-18T00:32:50.897Z,39.15
2018-12-18T00:35:18.311Z,39.13
2018-12-18T00:37:45.709Z,39.34
2018-12-18T00:40:13.158Z,38.91
2018-12-18T00:42:40.562Z,38.82
2018-12-18T00:45:07.982Z,39.27
2018-12-18T00:47:35.465Z,39.60
2018-12-18T00:50:02.897Z,39.51
2018-12-18T00:52:30.298Z,39.36
2018-12-18T00:54:57.691Z,39.34
2018-12-18T00:57:26.155Z,39.53
2018-12-18T00:59:53.553Z,39.69
2018-12-18T01:02:20.954Z,39.48
2018-12-18T01:04:48.350Z,39.41
2018-12-18T01:07:15.877Z,39.42
2018-12-18T01:09:43.262Z,39.79
2018-12-18T01:12:10.669Z,39.35
2018-12-18T01:14:38.062Z,39.84
2018-12-18T01:17:05.503Z,39.83
2018-12-18T01:19:32.971Z,39.30
2018-12-18T01:22:00.546Z,39.25
2018-12-18T01:24:28.013Z,39.26
2018-12-18T01:26:55.407Z,39.60
2018-12-18T01:29:22.806Z,39.07
2018-12-18T01:31:50.254Z,39.45
2018-12-18T01:34:17.658Z,39.31
2018-12-18T01:36:45.074Z,39.28
2018-12-18T01:39:14.545Z,39.59
2018-12-18T01:41:41.941Z,39.06
2018-12-18T01:44:09.337Z,39.22
2018-12-18T01:46:36.750Z,39.61
2018-12-18T01:49:04.203Z,39.47
2018-12-18T01:51:31.609Z,39.20
2018-12-18T01:53:59.089Z,39.44
2018-12-18T01:56:26.482Z,39.55
2018-12-18T01:58:53.890Z,39.78
2018-12-18T02:01:21.273Z,39.77
2018-12-18T02:03:48.773Z,39.65
2018-12-18T02:06:16.165Z,39.45
2018-12-18T02:08:44.378Z,39.80
2018-12-18T02:11:11.868Z,39.92
2018-12-18T02:13:39.269Z,39.97
2018-12-18T02:16:06.680Z,39.97
2018-12-18T02:18:34.090Z,39.61
2018-12-18T02:21:01.483Z,39.55
2018-12-18T02:23:29.006Z,39.84
2018-12-18T02:25:56.481Z,39.38
2018-12-18T02:28:23.879Z,39.36
2018-12-18T02:30:51.277Z,39.36
2018-12-18T02:33:18.808Z,39.39
2018-12-18T02:35:46.217Z,39.52
2018-12-18T02:38:13.595Z,39.36
2018-12-18T02:40:41.015Z,39.23
2018-12-18T02:43:09.467Z,39.36
2018-12-18T02:45:36.843Z,39.66
2018-12-18T02:48:04.367Z,39.43
2018-12-18T02:50:31.771Z,39.35
2018-12-18T02:52:59.186Z,39.17
2018-12-18T02:55:26.579Z,39.21
2018-12-18T02:57:53.981Z,39.22
2018-12-18T03:00:21.545Z,39.47
2018-12-18T03:02:49.006Z,39.66
2018-12-18T03:05:16.414Z,39.57
2018-12-18T03:07:43.796Z,39.82
2018-12-18T03:10:11.280Z,39.98
2018-12-18T03:12:38.736Z,39.77
2018-12-18T03:15:06.132Z,39.51
2018-12-18T03:17:33.518Z,39.88
2018-12-18T03:20:00.980Z,39.88
2018-12-18T03:22:28.397Z,39.60
2018-12-18T03:24:55.809Z,39.65
2018-12-18T03:27:23.240Z,39.63
2018-12-18T03:29:50.635Z,39.59
2018-12-18T03:32:22.400Z,39.48
2018-12-18T03:34:49.776Z,39.72
2018-12-18T03:37:17.169Z,39.71
2018-12-18T03:39:44.562Z,39.60
2018-12-18T03:42:11.941Z,39.79
2018-12-18T03:44:39.389Z,39.73
2018-12-18T03:47:06.768Z,39.76
2018-12-18T03:49:34.164Z,39.50
2018-12-18T03:52:01.581Z,39.24
2018-12-18T03:54:29.017Z,39.27
2018-12-18T03:56:56.507Z,39.74
2018-12-18T03:59:23.906Z,39.31
2018-12-18T04:01:51.330Z,39.73
2018-12-18T04:04:18.733Z,39.32
2018-12-18T04:06:46.116Z,39.74
2018-12-18T04:09:13.546Z,39.51
2018-12-18T04:11:46.507Z,39.54
2018-12-18T04:14:13.898Z,39.66
2018-12-18T04:16:41.271Z,39.43
2018-12-18T04:19:08.715Z,39.51
2018-12-18T04:21:36.108Z,40.07
2018-12-18T04:24:04.529Z,40.13
2018-12-18T04:26:31.928Z,39.76
2018-12-18T04:29:00.143Z,39.78
2018-12-18T04:31:27.534Z,40.21
2018-12-18T04:33:54.982Z,39.79
2018-12-18T04:36:22.395Z,40.32
2018-12-18T04:38:49.780Z,40.21
2018-12-18T04:41:17.170Z,39.78
2018-12-18T04:43:44.598Z,40.18
2018-12-18T04:46:11.979Z,40.38
2018-12-18T04:48:39.385Z,40.12
2018-12-18T04:51:06.866Z,39.83
2018-12-18T04:53:34.249Z,39.88
2018-12-18T04:56:01.689Z,39.79
2018-12-18T04:58:29.097Z,39.66
2018-12-18T05:00:56.513Z,39.80
2018-12-18T05:03:23.921Z,39.91
2018-12-18T05:05:52.333Z,39.80
2018-12-18T05:08:19.773Z,39.66
2018-12-18T05:10:47.182Z,39.54
2018-12-18T05:13:14.611Z,39.95
2018-12-18T05:15:42.022Z,39.37
2018-12-18T05:18:10.436Z,39.96
2018-12-18T05:20:37.861Z,39.44
2018-12-18T05:23:05.259Z,39.45
2018-12-18T05:25:32.678Z,39.43
2018-12-18T05:28:00.077Z,39.44
2018-12-18T05:30:27.473Z,39.50
2018-12-18T05:32:54.882Z,39.53
2018-12-18T05:35:22.319Z,39.90
2018-12-18T05:37:49.726Z,39.71
2018-12-18T05:40:18.176Z,39.63
2018-12-18T05:42:45.616Z,39.80
2018-12-18T05:45:13.046Z,40.13
2018-12-18T05:47:40.445Z,39.71
2018-12-18T05:50:08.005Z,40.01
2018-12-18T05:52:35.504Z,39.86
2018-12-18T05:55:03.480Z,39.69
2018-12-18T05:57:30.946Z,40.11
2018-12-18T05:59:58.370Z,39.83
2018-12-18T06:02:25.815Z,39.97
2018-12-18T06:04:54.304Z,39.74
2018-12-18T06:07:22.936Z,39.97
2018-12-18T06:09:50.998Z,39.83
2018-12-18T06:12:18.962Z,40.08
2018-12-18T06:14:46.343Z,39.72
2018-12-18T06:17:13.733Z,39.91
2018-12-18T06:19:41.141Z,39.67
2018-12-18T06:22:08.553Z,39.97
2018-12-18T06:24:37.008Z,39.47
2018-12-18T06:27:04.394Z,39.85
2018-12-18T06:29:31.796Z,39.62
2018-12-18T06:31:59.269Z,39.74
2018-12-18T06:34:26.734Z,39.55
2018-12-18T06:36:54.145Z,39.36
2018-12-18T06:39:21.730Z,39.88
2018-12-18T06:41:49.133Z,39.70
2018-12-18T06:44:16.509Z,39.59
2018-12-18T06:46:43.909Z,40.12
2018-12-18T06:49:11.302Z,40.00
2018-12-18T06:54:22.991Z,39.80
2018-12-18T06:56:50.376Z,39.65
2018-12-18T06:59:17.776Z,40.11
2018-12-18T07:01:45.191Z,39.85
2018-12-18T07:04:12.582Z,40.22
2018-12-18T07:06:39.981Z,40.41
2018-12-18T07:09:08.762Z,40.25
2018-12-18T07:11:36.137Z,39.88
2018-12-18T07:14:03.621Z,39.83
2018-12-18T07:16:31.022Z,39.91
2018-12-18T07:18:58.417Z,40.01
2018-12-18T07:21:25.800Z,39.33
2018-12-18T07:23:53.888Z,39.54
2018-12-18T07:26:21.269Z,39.98
2018-12-18T07:28:49.979Z,39.49
2018-12-18T07:31:17.574Z,39.49
2018-12-18T07:33:44.970Z,39.44
2018-12-18T07:36:12.362Z,39.84
2018-12-18T07:38:39.751Z,39.54
2018-12-18T07:41:07.789Z,39.46
2018-12-18T07:43:35.230Z,39.67
2018-12-18T07:46:02.630Z,39.37
2018-12-18T07:48:30.021Z,39.61
2018-12-18T07:50:57.403Z,39.60
2018-12-18T07:53:24.814Z,39.56
2018-12-18T07:55:52.220Z,39.53
2018-12-18T07:58:19.602Z,39.37
2018-12-18T08:00:46.998Z,39.56
2018-12-18T08:03:14.409Z,39.87
2018-12-18T08:05:41.801Z,39.85
2018-12-18T08:08:09.186Z,39.74
2018-12-18T08:10:36.596Z,39.72
2018-12-18T08:13:03.985Z,39.56
2018-12-18T08:15:31.415Z,39.50
2018-12-18T08:17:58.822Z,39.84
2018-12-18T08:20:26.209Z,39.47
2018-12-18T08:22:53.592Z,39.60
2018-12-18T08:25:21.810Z,39.95
2018-12-18T08:27:49.207Z,39.66
2018-12-18T08:30:16.626Z,39.40
2018-12-18T08:32:44.028Z,39.59
2018-12-18T08:35:11.425Z,39.81
2018-12-18T08:37:39.321Z,40.06
2018-12-18T08:40:07.062Z,40.02
2018-12-18T08:42:34.446Z,40.13
2018-12-18T08:45:01.846Z,39.71
2018-12-18T08:47:29.251Z,40.05
2018-12-18T08:49:56.709Z,39.62
2018-12-18T08:52:24.106Z,39.71
2018-12-18T08:54:51.502Z,39.62
2018-12-18T08:57:18.930Z,39.85
2018-12-18T08:59:46.325Z,40.01
2018-12-18T09:02:13.745Z,39.49
2018-12-18T09:04:41.137Z,39.65
2018-12-18T09:07:08.549Z,39.80
2018-12-18T09:09:35.933Z,39.75
2018-12-18T09:12:03.322Z,39.83
2018-12-18T09:14:30.701Z,39.96
2018-12-18T09:17:02.601Z,39.92
2018-12-18T09:19:30.372Z,39.67
2018-12-18T09:21:57.762Z,39.50
2018-12-18T09:24:25.161Z,39.79
2018-12-18T09:26:53.550Z,39.67
2018-12-18T09:29:20.954Z,39.55
2018-12-18T09:31:48.358Z,39.64
2018-12-18T09:34:15.830Z,39.35
2018-12-18T09:36:43.226Z,39.74
2018-12-18T09:39:16.007Z,39.50
2018-12-18T09:41:46.832Z,39.83
2018-12-18T09:44:17.962Z,39.46
2018-12-18T09:46:45.484Z,39.51
2018-12-18T09:49:12.866Z,39.99
2018-12-18T09:51:40.334Z,39.94
2018-12-18T09:54:07.735Z,39.64
2018-12-18T09:56:40.534Z,39.57
2018-12-18T09:59:07.929Z,40.13
2018-12-18T10:01:35.338Z,39.83
2018-12-18T10:04:02.754Z,40.04
2018-12-18T10:06:30.143Z,39.59
2018-12-18T10:08:57.517Z,39.73
2018-12-18T10:11:24.909Z,40.09
2018-12-18T10:13:52.317Z,40.04
2018-12-18T10:16:19.724Z,40.07
2018-12-18T10:18:47.119Z,40.19
2018-12-18T10:21:14.521Z,39.80
2018-12-18T10:23:41.924Z,40.08
2018-12-18T10:26:09.325Z,40.43
2018-12-18T10:28:36.722Z,40.25
2018-12-18T10:31:04.125Z,40.15
2018-12-18T10:33:32.535Z,40.06
2018-12-18T10:36:02.938Z,39.72
2018-12-18T10:38:29.585Z,40.26
2018-12-18T10:40:57.043Z,39.66
2018-12-18T10:43:24.434Z,39.95
2018-12-18T10:45:51.817Z,39.62
2018-12-18T10:48:19.227Z,40.07
2018-12-18T10:50:46.667Z,40.37
2018-12-18T10:53:14.065Z,39.92
2018-12-18T10:55:41.450Z,40.05
2018-12-18T10:58:08.857Z,39.81
2018-12-18T11:00:41.789Z,39.80
2018-12-18T11:03:09.187Z,39.89
2018-12-18T11:05:36.677Z,40.28
2018-12-18T11:08:04.065Z,40.19
2018-12-18T11:10:32.294Z,39.79
2018-12-18T11:13:05.258Z,40.03
2018-12-18T11:15:32.649Z,39.81
2018-12-18T11:18:00.854Z,39.80
2018-12-18T11:20:28.261Z,39.62
2018-12-18T11:22:55.655Z,39.88
2018-12-18T11:25:23.053Z,40.15
2018-12-18T11:27:50.445Z,39.96
2018-12-18T11:30:17.849Z,39.97
2018-12-18T11:32:45.229Z,39.79
2018-12-18T11:35:13.358Z,40.25
2018-12-18T11:37:40.737Z,40.18
2018-12-18T11:40:08.823Z,40.13
2018-12-18T11:42:36.209Z,40.02
2018-12-18T11:45:03.610Z,39.87
2018-12-18T11:47:31.006Z,39.87
2018-12-18T11:49:58.411Z,40.13
2018-12-18T11:52:25.909Z,39.78
2018-12-18T11:54:53.280Z,40.08
2018-12-18T11:57:20.665Z,39.77
2018-12-18T11:59:48.057Z,39.83
2018-12-18T12:02:15.442Z,40.20
2018-12-18T12:04:42.830Z,40.00
2018-12-18T12:07:11.143Z,40.20
2018-12-18T12:09:38.542Z,40.16
2018-12-18T12:12:06.101Z,40.21
2018-12-18T12:14:33.550Z,39.59
2018-12-18T12:17:01.660Z,40.18
2018-12-18T12:19:29.312Z,39.92
2018-12-18T12:21:56.697Z,40.24
2018-12-18T12:24:24.091Z,39.95
2018-12-18T12:26:53.470Z,39.65
2018-12-18T12:29:20.854Z,40.12
2018-12-18T12:31:55.026Z,39.99
2018-12-18T12:34:22.405Z,39.62
2018-12-18T12:36:50.865Z,39.71
2018-12-18T12:39:18.258Z,40.22
2018-12-18T12:41:45.669Z,39.69
2018-12-18T12:44:13.039Z,39.78
2018-12-18T12:46:40.440Z,39.68
2018-12-18T12:49:09.885Z,40.10
2018-12-18T12:51:39.109Z,39.65
2018-12-18T12:54:06.495Z,39.84
2018-12-18T12:56:33.910Z,39.54
2018-12-18T12:59:01.298Z,39.71
2018-12-18T13:01:28.696Z,39.70
2018-12-18T13:03:56.089Z,40.07
2018-12-18T13:06:23.490Z,39.96
2018-12-18T13:08:50.890Z,39.93
2018-12-18T13:11:18.277Z,40.13
2018-12-18T13:13:45.705Z,40.24
2018-12-18T13:16:13.096Z,39.83
2018-12-18T13:18:40.490Z,40.24
2018-12-18T13:21:07.886Z,39.61
2018-12-18T13:23:35.286Z,40.04
2018-12-18T13:26:02.673Z,39.84
2018-12-18T13:28:30.083Z,39.96
2018-12-18T13:30:57.458Z,39.71
2018-12-18T13:33:24.864Z,39.87
2018-12-18T13:35:53.146Z,40.21
2018-12-18T13:38:20.603Z,39.61
2018-12-18T13:40:51.109Z,39.72
2018-12-18T13:43:18.498Z,39.65
2018-12-18T13:45:45.906Z,39.80
2018-12-18T13:48:13.329Z,39.65
2018-12-18T13:53:14.594Z,40.12
2018-12-18T13:55:41.994Z,39.95
2018-12-18T13:58:09.513Z,39.93
2018-12-18T14:00:36.931Z,39.77
2018-12-18T14:03:04.320Z,40.09
2018-12-18T14:05:31.802Z,40.12
2018-12-18T14:07:59.197Z,39.65
2018-12-18T14:10:26.570Z,39.81
2018-12-18T14:12:56.873Z,40.11
2018-12-18T14:15:24.309Z,39.52
2018-12-18T14:17:51.703Z,39.99
2018-12-18T14:20:19.090Z,39.45
2018-12-18T14:22:46.491Z,40.01
2018-12-18T14:25:13.926Z,39.87
2018-12-18T14:27:41.307Z,39.69
2018-12-18T14:30:08.709Z,39.81
2018-12-18T14:32:36.102Z,39.83
2018-12-18T14:35:03.485Z,39.44
2018-12-18T14:37:30.878Z,40.17
2018-12-18T14:39:59.274Z,39.29
2018-12-18T14:42:26.664Z,39.64
2018-12-18T14:44:54.050Z,39.25
2018-12-18T14:47:21.437Z,39.43
2018-12-18T14:49:48.858Z,39.95
2018-12-18T14:52:16.258Z,39.37
2018-12-18T14:54:43.651Z,40.08
2018-12-18T14:57:11.033Z,39.67
2018-12-18T14:59:38.608Z,39.84
2018-12-18T15:02:06.002Z,39.42
2018-12-18T15:04:33.410Z,39.87
2018-12-18T15:07:03.064Z,39.86
2018-12-18T15:09:30.782Z,39.70
2018-12-18T15:11:58.178Z,39.83
2018-12-18T15:14:26.594Z,39.73
2018-12-18T15:16:53.987Z,39.80
2018-12-18T15:19:21.397Z,39.83
2018-12-18T15:21:48.789Z,39.87
2018-12-18T15:24:16.165Z,39.60
2018-12-18T15:26:43.569Z,39.96
2018-12-18T15:29:10.986Z,40.09
2018-12-18T15:31:38.373Z,39.43
2018-12-18T15:34:05.769Z,39.50
2018-12-18T15:36:33.181Z,39.53
2018-12-18T15:39:00.589Z,39.59
2018-12-18T15:41:27.989Z,39.73
2018-12-18T15:43:55.401Z,39.37
2018-12-18T15:46:22.793Z,39.86
2018-12-18T15:48:50.193Z,39.46
2018-12-18T15:51:17.600Z,39.45
2018-12-18T15:53:44.997Z,39.84
2018-12-18T15:56:12.429Z,39.73
2018-12-18T15:58:39.810Z,39.74
2018-12-18T16:01:07.253Z,39.28
2018-12-18T16:03:34.641Z,39.82
2018-12-18T16:06:02.057Z,39.15
2018-12-18T16:08:29.462Z,39.90
2018-12-18T16:10:56.897Z,39.20
2018-12-18T16:13:24.290Z,39.52
2018-12-18T16:15:51.694Z,39.64
2018-12-18T16:18:19.095Z,39.35
2018-12-18T16:20:46.517Z,39.81
2018-12-18T16:23:13.913Z,39.41
2018-12-18T16:25:41.305Z,39.74
2018-12-18T16:28:08.689Z,39.64
2018-12-18T16:30:36.110Z,39.64
2018-12-18T16:33:03.507Z,39.78
2018-12-18T16:35:30.903Z,40.00
2018-12-18T16:37:58.298Z,40.11
2018-12-18T16:40:25.676Z,39.89
2018-12-18T16:42:53.108Z,39.91
2018-12-18T16:45:20.494Z,40.27
2018-12-18T16:47:47.930Z,39.98
2018-12-18T16:50:15.324Z,39.91
2018-12-18T16:52:42.792Z,39.83
2018-12-18T16:55:13.723Z,40.14
2018-12-18T16:57:41.124Z,40.06
2018-12-18T17:03:08.676Z,40.52
2018-12-18T17:05:36.082Z,40.72
2018-12-18T17:08:03.490Z,40.93
2018-12-18T17:10:37.028Z,40.99
2018-12-18T17:13:04.414Z,41.10
2018-12-18T17:15:31.894Z,41.03
2018-12-18T17:17:59.355Z,40.96
2018-12-18T17:20:26.799Z,41.10
2018-12-18T17:22:55.129Z,41.30
2018-12-18T17:25:22.545Z,41.24
2018-12-18T17:27:49.986Z,41.29
2018-12-18T17:30:17.436Z,41.06
2018-12-18T17:40:01.593Z,41.13
2018-12-18T17:42:29.007Z,40.90
2018-12-18T17:49:47.538Z,41.01
2018-12-18T18:04:22.680Z,40.78
2018-12-18T18:06:50.126Z,40.75
2018-12-18T18:09:17.669Z,40.57
2018-12-18T18:11:45.090Z,40.71
2018-12-18T18:14:13.882Z,41.24
2018-12-18T18:16:41.541Z,41.31
2018-12-18T18:19:09.065Z,40.77
2018-12-18T18:21:36.538Z,40.97
2018-12-18T18:24:05.828Z,40.77
2018-12-18T18:26:39.251Z,40.72
2018-12-18T18:29:07.897Z,41.11
2018-12-18T18:31:35.419Z,40.77
2018-12-18T18:34:02.948Z,41.21
2018-12-18T18:36:30.468Z,41.07
2018-12-18T18:38:58.318Z,41.03
2018-12-18T18:41:28.114Z,41.30
2018-12-18T18:43:55.787Z,40.81
2018-12-18T18:46:23.291Z,41.28
2018-12-18T18:48:57.234Z,41.25
2018-12-18T18:51:24.627Z,41.22
2018-12-18T18:53:52.061Z,41.12
2018-12-18T18:56:19.840Z,41.33
2018-12-18T18:58:47.319Z,40.65
2018-12-18T19:01:14.787Z,40.84
2018-12-18T19:03:42.242Z,40.87
2018-12-18T19:06:09.779Z,40.97
2018-12-18T19:08:37.245Z,41.00
2018-12-18T19:11:04.714Z,40.52
2018-12-18T19:13:32.198Z,41.00
2018-12-18T19:15:59.618Z,40.56
2018-12-18T19:18:27.030Z,40.47
2018-12-18T19:20:54.464Z,40.53
2018-12-18T19:23:21.866Z,40.95
2018-12-18T19:25:49.335Z,40.93
2018-12-18T19:28:16.783Z,40.61
2018-12-18T19:30:44.241Z,40.55
2018-12-18T19:33:11.802Z,41.19
2018-12-18T19:35:40.402Z,41.04
2018-12-18T19:38:07.847Z,41.16
2018-12-18T19:40:36.342Z,40.75
2018-12-18T19:43:03.909Z,40.63
2018-12-18T19:45:31.436Z,40.70
2018-12-18T19:47:58.895Z,40.91
2018-12-18T19:50:26.327Z,40.55
2018-12-18T19:52:53.781Z,40.95
2018-12-18T19:55:21.235Z,41.21
2018-12-18T19:57:48.629Z,40.99
2018-12-18T20:00:16.169Z,41.17
2018-12-18T20:02:43.568Z,40.76
2018-12-18T20:05:11.084Z,40.26
2018-12-18T20:07:38.513Z,40.50
2018-12-18T20:10:05.952Z,40.19
2018-12-18T20:12:33.460Z,40.48
2018-12-18T20:15:00.890Z,40.36
2018-12-18T20:17:28.810Z,40.36
2018-12-18T20:19:56.310Z,40.79
2018-12-18T20:22:26.446Z,40.42
2018-12-18T20:24:53.870Z,40.56
2018-12-18T20:27:21.307Z,40.31
2018-12-18T20:29:49.078Z,40.76
2018-12-18T20:32:16.501Z,40.42
2018-12-18T20:34:43.922Z,40.61
2018-12-18T20:37:11.359Z,40.40
2018-12-18T20:39:38.761Z,40.39
2018-12-18T20:42:06.172Z,40.51
2018-12-18T20:44:33.591Z,40.68
2018-12-18T20:47:01.069Z,40.74
2018-12-18T20:49:28.481Z,40.97
2018-12-18T20:51:55.881Z,40.87
2018-12-18T20:54:23.349Z,40.50
2018-12-18T20:56:50.748Z,40.69
2018-12-18T20:59:19.146Z,40.96
2018-12-18T21:01:46.562Z,40.90
2018-12-18T21:04:13.945Z,40.30
2018-12-18T21:06:42.196Z,39.47
2018-12-18T21:09:12.464Z,39.76
2018-12-18T21:11:39.867Z,40.20
2018-12-18T21:14:07.266Z,40.66
2018-12-18T21:16:34.704Z,41.26
2018-12-18T21:19:02.101Z,41.13
2018-12-18T21:21:29.541Z,41.05
2018-12-18T21:23:56.984Z,40.31
2018-12-18T21:26:24.441Z,40.49
2018-12-18T21:28:52.296Z,40.06
2018-12-18T21:31:19.705Z,40.68
2018-12-18T21:33:58.149Z,39.95
2018-12-18T21:36:25.743Z,40.11
2018-12-18T21:38:53.369Z,39.79
2018-12-18T21:41:20.846Z,39.73
2018-12-18T21:43:59.865Z,39.83
2018-12-18T21:46:27.350Z,39.49
2018-12-18T21:48:54.855Z,39.47
2018-12-18T21:51:39.515Z,39.72
2018-12-18T21:54:07.270Z,40.10
2018-12-18T21:56:35.885Z,39.95
2018-12-18T21:59:03.379Z,39.56
2018-12-18T22:01:30.850Z,39.56
2018-12-18T22:03:58.437Z,39.63
2018-12-18T22:06:25.966Z,40.09
2018-12-18T22:08:53.445Z,39.62
2018-12-18T22:11:20.854Z,39.70
2018-12-18T22:13:48.478Z,39.66
2018-12-18T22:16:17.157Z,39.37
2018-12-18T22:18:44.686Z,39.95
2018-12-18T22:21:12.189Z,39.58
2018-12-18T22:23:39.661Z,39.96
2018-12-18T22:26:07.166Z,39.79
2018-12-18T22:28:34.621Z,39.94
2018-12-18T22:31:02.054Z,39.73
2018-12-18T22:33:29.543Z,39.78
2018-12-18T22:35:57.049Z,39.70
2018-12-18T22:38:24.541Z,38.74
2018-12-18T22:40:52.027Z,39.75
2018-12-18T22:43:19.700Z,38.54
2018-12-18T22:45:47.130Z,39.45
2018-12-18T22:48:14.611Z,39.69
2018-12-18T22:50:42.213Z,39.82
2018-12-18T22:53:09.614Z,39.84
2018-12-18T22:55:37.528Z,39.76
2018-12-18T22:58:05.106Z,40.16
2018-12-18T23:00:40.560Z,39.96
2018-12-18T23:03:08.064Z,39.97
2018-12-18T23:05:35.618Z,40.33
2018-12-18T23:08:03.150Z,40.55
2018-12-18T23:10:30.754Z,39.97
2018-12-18T23:12:58.217Z,40.00
2018-12-18T23:15:25.645Z,39.87
2018-12-18T23:17:53.153Z,39.92
2018-12-18T23:20:20.769Z,39.91
2018-12-18T23:22:48.166Z,39.79
2018-12-18T23:25:15.734Z,40.01
2018-12-18T23:27:43.309Z,40.42
2018-12-18T23:30:10.808Z,40.19
2018-12-18T23:32:38.351Z,39.83
2018-12-18T23:35:06.090Z,40.37
2018-12-18T23:37:33.583Z,39.91
2018-12-18T23:40:01.106Z,40.05
2018-12-18T23:42:35.830Z,40.49
2018-12-18T23:45:04.399Z,39.83
2018-12-18T23:47:31.977Z,40.13
2018-12-18T23:49:59.650Z,39.88
2018-12-18T23:52:27.265Z,39.22
2018-12-18T23:54:54.865Z,39.47
2018-12-18T23:57:22.287Z,39.54
2018-12-18T23:59:49.933Z,39.92
